Time;durP1;ratioP1;P1;durP2;ratioP2;P2;SDS_P1;SDS_P2;PMS_P1;PMS_P2;Temp;Humidity;BMP_temperature;BMP_pressure;BME280_temperature;BME280_humidity;BME280_pressure;Samples;Min_cycle;Max_cycle;Signal;HPM_P1;HPM_P2
2022/05/12 00:02:01;;;;;;;8.65;6.03;;;;;;;17.58;56.92;98672.53;8201333;28;20061;-72
2022/05/12 00:06:05;;;;;;;9.77;6.43;;;;;;;17.58;56.65;98673.31;8217451;28;20051;-71
2022/05/12 00:10:08;;;;;;;10.30;5.47;;;;;;;17.63;56.24;98670.31;8223700;28;20066;-72
2022/05/12 00:14:09;;;;;;;12.60;5.82;;;;;;;17.63;56.41;98672.25;8200805;28;20055;-72
2022/05/12 00:18:10;;;;;;;12.50;6.07;;;;;;;17.73;55.58;98658.78;8212890;28;20051;-71
2022/05/12 00:22:11;;;;;;;10.20;4.93;;;;;;;17.79;55.41;98662.00;8200758;28;20076;-71
2022/05/12 00:26:12;;;;;;;10.82;5.93;;;;;;;17.84;54.98;98658.16;8200921;28;20047;-72
2022/05/12 00:30:13;;;;;;;7.03;5.05;;;;;;;17.93;54.51;98667.66;8202643;28;20050;-71
2022/05/12 00:34:16;;;;;;;7.80;5.53;;;;;;;17.93;54.75;98656.72;8209088;28;20109;-72
2022/05/12 00:38:17;;;;;;;10.35;5.45;;;;;;;17.87;54.84;98655.47;8199885;28;20438;-71
2022/05/12 00:42:18;;;;;;;14.27;6.00;;;;;;;17.81;55.15;98656.16;8200593;28;20079;-72
2022/05/12 00:46:32;;;;;;;11.50;5.57;;;;;;;17.73;55.26;98652.53;8203594;28;20051;-72
2022/05/12 00:50:43;;;;;;;12.43;5.55;;;;;;;17.64;55.57;98644.59;8197964;28;20051;-73
2022/05/12 00:54:47;;;;;;;12.43;6.45;;;;;;;17.47;56.42;98649.72;8213768;28;20083;-71
2022/05/12 00:58:50;;;;;;;9.20;6.03;;;;;;;17.36;57.09;98654.22;8214189;28;20047;-71
2022/05/12 01:02:54;;;;;;;9.60;6.18;;;;;;;17.29;56.80;98650.22;8199313;28;20058;-72
2022/05/12 01:06:55;;;;;;;12.77;6.38;;;;;;;17.17;57.65;98641.44;8198665;29;20134;-72
2022/05/12 01:11:13;;;;;;;11.50;6.03;;;;;;;17.05;57.78;98634.22;8188225;28;20054;-72
2022/05/12 01:15:17;;;;;;;11.75;5.70;;;;;;;17.03;57.76;98641.94;8199896;28;20048;-71
2022/05/12 01:19:32;;;;;;;8.18;5.43;;;;;;;17.02;57.84;98640.41;8199238;28;20051;-72
2022/05/12 01:23:36;;;;;;;10.40;5.43;;;;;;;16.98;58.35;98639.53;8199629;28;20479;-72
2022/05/12 01:27:37;;;;;;;11.23;5.38;;;;;;;17.06;57.85;98635.00;8199408;28;20067;-72
2022/05/12 01:31:39;;;;;;;8.52;5.38;;;;;;;17.08;57.80;98638.91;8199491;28;20528;-71
2022/05/12 01:35:40;;;;;;;12.10;5.60;;;;;;;17.15;57.66;98633.59;8199316;28;20048;-72
2022/05/12 01:39:41;;;;;;;9.85;5.47;;;;;;;17.17;57.43;98631.31;8199875;28;20055;-72
2022/05/12 01:43:42;;;;;;;10.60;5.03;;;;;;;17.13;57.87;98635.91;8198495;28;20051;-72
2022/05/12 01:47:47;;;;;;;11.38;5.82;;;;;;;17.10;57.93;98636.63;8199343;28;20411;-71
2022/05/12 01:51:56;;;;;;;8.68;5.07;;;;;;;17.08;58.21;98633.47;8198758;28;20062;-72
2022/05/12 01:55:57;;;;;;;8.93;5.47;;;;;;;17.06;58.27;98630.34;8199648;28;20126;-72
2022/05/12 02:00:00;;;;;;;10.02;5.60;;;;;;;17.03;58.56;98625.59;8198853;28;20062;-72
2022/05/12 02:04:02;;;;;;;8.85;5.25;;;;;;;17.06;58.24;98619.41;8198243;28;20087;-73
2022/05/12 02:08:04;;;;;;;12.52;6.22;;;;;;;17.00;58.87;98631.78;8197815;28;20051;-72
2022/05/12 02:12:05;;;;;;;13.20;7.47;;;;;;;16.97;58.93;98637.97;8180658;28;20050;-72
2022/05/12 02:16:06;;;;;;;9.27;5.90;;;;;;;16.99;58.59;98627.47;8203491;28;20047;-72
2022/05/12 02:20:10;;;;;;;8.68;5.35;;;;;;;17.08;58.54;98633.47;8204201;28;20106;-72
2022/05/12 02:24:14;;;;;;;9.75;4.97;;;;;;;17.36;57.98;98635.13;8204750;28;20062;-71
2022/05/12 02:28:15;;;;;;;7.13;4.93;;;;;;;17.66;56.83;98625.09;8203576;28;20447;-71
2022/05/12 02:32:16;;;;;;;13.18;4.50;;;;;;;17.81;56.45;98626.13;8203891;28;20047;-72
2022/05/12 02:36:17;;;;;;;12.27;5.00;;;;;;;18.01;55.61;98620.16;8204352;28;20067;-71
2022/05/12 02:40:22;;;;;;;13.02;5.03;;;;;;;18.13;55.12;98621.91;8203984;28;20059;-72
2022/05/12 02:44:23;;;;;;;10.48;4.80;;;;;;;18.21;54.85;98617.31;8172197;29;20059;-71
2022/05/12 02:48:26;;;;;;;8.95;4.40;;;;;;;18.26;54.76;98619.72;8172574;29;20419;-73
2022/05/12 02:52:30;;;;;;;8.65;4.38;;;;;;;18.25;54.74;98623.59;8175376;28;20105;-72
2022/05/12 02:56:34;;;;;;;6.15;4.72;;;;;;;18.26;54.84;98630.63;8203317;28;20060;-71
2022/05/12 03:00:35;;;;;;;9.00;4.75;;;;;;;18.34;54.54;98627.66;8202786;28;20074;-72
2022/05/12 03:04:36;;;;;;;7.90;4.22;;;;;;;18.26;54.58;98625.16;8202473;28;20067;-71
2022/05/12 03:08:42;;;;;;;9.88;4.53;;;;;;;18.27;54.81;98632.22;8203005;28;20235;-72
2022/05/12 03:12:46;;;;;;;10.07;5.03;;;;;;;18.36;54.43;98624.53;8203188;28;20396;-71
2022/05/12 03:16:47;;;;;;;6.32;4.25;;;;;;;18.33;54.45;98636.22;8202203;28;20388;-72
2022/05/12 03:20:51;;;;;;;6.22;4.20;;;;;;;18.37;54.03;98626.88;8201550;28;20730;-72
2022/05/12 03:24:52;;;;;;;7.38;4.25;;;;;;;18.39;54.07;98624.59;8201152;28;20055;-73
2022/05/12 03:28:53;;;;;;;6.95;4.32;;;;;;;18.40;54.15;98619.91;8202397;28;20051;-71
2022/05/12 03:32:53;;;;;;;7.32;4.32;;;;;;;18.48;53.95;98616.09;8202169;28;20078;-71
2022/05/12 03:36:55;;;;;;;12.55;4.65;;;;;;;18.51;53.78;98627.06;8199422;29;20055;-72
2022/05/12 03:40:56;;;;;;;7.53;4.47;;;;;;;18.55;53.68;98621.69;8201854;28;20149;-72
2022/05/12 03:44:59;;;;;;;6.13;4.03;;;;;;;18.59;53.42;98624.44;8202326;28;20047;-72
2022/05/12 03:49:00;;;;;;;9.98;4.32;;;;;;;18.65;53.50;98621.00;8202504;28;20078;-71
2022/05/12 03:53:01;;;;;;;12.32;4.40;;;;;;;18.56;53.97;98626.75;8202874;28;20063;-72
2022/05/12 03:57:02;;;;;;;7.25;3.85;;;;;;;18.59;53.66;98627.19;8216308;28;20510;-72
2022/05/12 04:01:05;;;;;;;9.15;4.07;;;;;;;18.63;53.69;98628.78;8201351;29;20127;-71
2022/05/12 04:05:07;;;;;;;18.08;4.60;;;;;;;18.63;53.55;98617.84;8217325;28;20082;-72
2022/05/12 04:09:08;;;;;;;13.90;4.10;;;;;;;18.73;53.40;98622.66;8202172;28;20142;-71
2022/05/12 04:13:09;;;;;;;8.45;4.32;;;;;;;18.83;53.54;98621.97;8201127;28;20055;-73
2022/05/12 04:17:13;;;;;;;12.68;4.53;;;;;;;18.96;53.31;98625.25;8218017;28;20480;-71
2022/05/12 04:21:15;;;;;;;11.02;4.15;;;;;;;19.13;53.01;98634.81;8218748;28;20053;-71
2022/05/12 04:25:17;;;;;;;6.13;4.22;;;;;;;19.16;52.94;98623.09;8199551;28;20047;-71
2022/05/12 04:29:17;;;;;;;6.95;3.80;;;;;;;19.16;53.24;98634.81;8200812;28;20093;-72
2022/05/12 04:37:44;;;;;;;6.85;3.70;;;;;;;19.04;54.09;98653.47;8211916;28;20055;-72
2022/05/12 04:41:46;;;;;;;6.45;4.00;;;;;;;19.04;53.65;98650.72;8200444;28;20090;-73
2022/05/12 04:45:46;;;;;;;8.85;4.40;;;;;;;19.13;53.28;98656.69;8199206;28;20051;-73
2022/05/12 04:49:47;;;;;;;7.82;3.95;;;;;;;19.31;53.01;98652.16;8200423;28;20055;-72
2022/05/12 04:53:48;;;;;;;17.83;4.53;;;;;;;19.44;52.98;98656.22;8199903;28;20081;-71
2022/05/12 04:57:53;;;;;;;9.93;3.97;;;;;;;19.62;52.42;98662.63;8200293;28;20035;-72
2022/05/12 05:01:53;;;;;;;11.00;4.00;;;;;;;19.88;51.69;98663.63;8213956;28;20550;-71
2022/05/12 05:05:54;;;;;;;9.85;3.95;;;;;;;20.06;51.51;98680.97;8182056;29;20047;-72
2022/05/12 05:09:55;;;;;;;8.73;4.20;;;;;;;20.19;50.66;98671.28;8199648;28;20142;-72
2022/05/12 05:13:56;;;;;;;6.63;3.53;;;;;;;20.37;50.44;98685.88;8199274;28;20110;-73
2022/05/12 05:17:57;;;;;;;7.30;3.83;;;;;;;20.50;50.44;98695.38;8199807;28;20599;-73
2022/05/12 05:21:58;;;;;;;15.32;4.30;;;;;;;20.54;49.63;98707.16;8199841;28;20446;-71
2022/05/12 05:25:59;;;;;;;12.45;3.90;;;;;;;20.39;50.33;98716.47;8199204;28;20051;-71
2022/05/12 05:30:01;;;;;;;9.93;4.00;;;;;;;20.11;51.53;98721.72;8199380;28;20043;-72
2022/05/12 05:34:01;;;;;;;8.05;4.10;;;;;;;19.98;52.49;98717.72;8198924;28;20062;-70
2022/05/12 05:38:03;;;;;;;7.25;3.78;;;;;;;20.07;52.51;98720.94;8199501;28;20055;-72
2022/05/12 05:42:11;;;;;;;17.45;4.15;;;;;;;20.25;51.39;98738.28;8196574;28;20043;-71
2022/05/12 05:46:12;;;;;;;8.38;3.65;;;;;;;20.42;50.24;98723.91;8192886;28;20047;-73
2022/05/12 05:50:16;;;;;;;10.98;4.10;;;;;;;20.57;49.48;98733.81;8215244;28;20558;-71
2022/05/12 05:54:17;;;;;;;9.80;3.28;;;;;;;20.71;48.75;98738.59;8218335;28;20062;-72
2022/05/12 05:58:19;;;;;;;10.05;3.75;;;;;;;20.79;48.84;98751.16;8174533;28;20051;-71
2022/05/12 06:02:23;;;;;;;7.68;3.10;;;;;;;20.86;48.99;98755.91;8179625;29;20070;-72
2022/05/12 06:06:24;;;;;;;13.05;3.22;;;;;;;21.00;48.11;98769.69;8187683;28;20135;-72
2022/05/12 06:10:26;;;;;;;8.43;2.85;;;;;;;21.12;47.09;98769.34;8175256;29;20130;-71
2022/05/12 06:14:28;;;;;;;17.00;2.90;;;;;;;21.39;44.98;98789.88;8177189;29;20123;-72
2022/05/12 06:18:30;;;;;;;17.02;3.10;;;;;;;21.54;44.84;98784.41;8183810;28;20065;-72
2022/05/12 06:22:30;;;;;;;13.65;2.67;;;;;;;21.73;44.03;98781.31;8175590;29;20082;-72
2022/05/12 06:26:31;;;;;;;71.55;4.82;;;;;;;21.79;43.68;98785.22;8185604;28;20058;-72
2022/05/12 06:30:33;;;;;;;29.83;3.08;;;;;;;21.91;42.34;98798.59;8176331;29;20143;-72
2022/05/12 06:34:34;;;;;;;12.32;3.10;;;;;;;21.93;43.44;98790.78;8173556;29;20052;-71
2022/05/12 06:38:35;;;;;;;17.20;2.70;;;;;;;22.01;42.68;98811.59;8171210;29;20115;-71
2022/05/12 06:42:37;;;;;;;6.90;2.53;;;;;;;22.06;42.19;98805.72;8200797;28;20511;-71
2022/05/12 06:46:40;;;;;;;17.23;3.15;;;;;;;22.14;42.41;98818.31;8171668;29;20063;-72
2022/05/12 06:50:41;;;;;;;18.00;2.80;;;;;;;22.20;42.64;98805.75;8176220;29;20043;-71
2022/05/12 06:54:44;;;;;;;15.13;2.92;;;;;;;22.23;42.35;98813.19;8180360;29;20051;-72
2022/05/12 06:58:51;;;;;;;13.63;3.05;;;;;;;22.24;41.46;98809.28;8178910;28;20062;-71
2022/05/12 07:02:52;;;;;;;22.42;3.30;;;;;;;22.30;41.43;98826.97;8176621;28;20421;-72
2022/05/12 07:06:53;;;;;;;13.95;3.30;;;;;;;22.42;42.03;98833.25;8171830;29;20193;-74
2022/05/12 07:10:54;;;;;;;14.73;3.60;;;;;;;22.47;42.49;98855.63;8159227;29;20142;-72
2022/05/12 07:14:56;;;;;;;18.73;4.20;;;;;;;22.12;44.58;98869.38;8203136;28;20047;-72
2022/05/12 07:18:57;;;;;;;18.45;4.63;;;;;;;22.16;45.88;98886.66;8203353;28;20055;-71
2022/05/12 07:27:25;;;;;;;12.60;5.57;;;;;;;22.35;46.98;98913.03;8136025;29;20599;-72
2022/05/12 07:31:26;;;;;;;11.20;5.20;;;;;;;22.41;47.39;98931.50;8133761;29;20134;-71
2022/05/12 07:35:27;;;;;;;29.63;5.65;;;;;;;22.09;48.36;98947.94;8131978;29;20493;-72
2022/05/12 07:39:30;;;;;;;13.88;5.40;;;;;;;21.94;48.97;98957.34;8116325;29;20067;-71
2022/05/12 07:43:31;;;;;;;16.67;4.90;;;;;;;21.68;49.65;98960.34;8134262;29;20504;-72
2022/05/12 07:47:32;;;;;;;17.52;4.30;;;;;;;21.46;50.38;98968.47;8134169;29;20048;-71
2022/05/12 07:51:33;;;;;;;14.80;5.18;;;;;;;21.37;50.56;98962.53;8131969;29;20072;-71
2022/05/12 07:55:35;;;;;;;13.95;4.85;;;;;;;21.74;50.16;98964.28;8134303;29;20060;-72
2022/05/12 07:59:36;;;;;;;12.93;4.72;;;;;;;22.26;49.25;98980.19;8134352;29;20047;-72
2022/05/12 08:03:37;;;;;;;9.27;4.30;;;;;;;22.28;49.00;98988.84;8183053;28;20114;-71
2022/05/12 08:07:38;;;;;;;23.45;4.97;;;;;;;22.06;48.35;98992.72;8198215;28;20047;-72
2022/05/12 08:11:39;;;;;;;9.95;4.95;;;;;;;22.08;48.10;98984.09;8197374;28;20074;-71
2022/05/12 08:15:48;;;;;;;11.13;4.50;;;;;;;21.74;48.75;99008.25;8200456;28;20050;-72
2022/05/12 08:19:49;;;;;;;16.30;4.55;;;;;;;21.65;48.77;98988.56;8197849;28;20051;-71
2022/05/12 08:23:51;;;;;;;12.85;4.40;;;;;;;22.09;48.78;99000.19;8199849;28;20130;-72
2022/05/12 08:27:52;;;;;;;11.93;4.45;;;;;;;21.98;48.54;99013.13;8197541;28;20047;-72
2022/05/12 08:31:53;;;;;;;11.00;3.75;;;;;;;22.36;48.24;99021.91;8200184;28;20502;-71
2022/05/12 08:35:55;;;;;;;9.82;3.50;;;;;;;22.31;48.07;99026.56;8199897;28;20415;-72
2022/05/12 08:39:56;;;;;;;11.55;3.42;;;;;;;22.40;47.87;99039.19;8181295;28;20517;-71
2022/05/12 08:44:06;;;;;;;11.07;3.40;;;;;;;22.17;47.58;99037.53;8194337;28;20419;-72
2022/05/12 08:48:09;;;;;;;11.82;2.90;;;;;;;22.33;47.41;99062.75;8197007;28;20043;-72
2022/05/12 08:52:47;;;;;;;14.60;3.10;;;;;;;21.95;46.92;99041.38;8196637;28;20047;-72
2022/05/12 08:56:53;;;;;;;11.60;2.85;;;;;;;21.70;46.78;99046.72;8211468;28;20055;-72
2022/05/12 09:01:13;;;;;;;9.00;3.17;;;;;;;21.49;47.58;99052.88;8213855;28;20128;-72
2022/05/12 09:05:18;;;;;;;16.42;2.95;;;;;;;21.67;47.98;99063.19;8198937;28;20114;-71
2022/05/12 09:09:33;;;;;;;14.68;2.97;;;;;;;21.84;47.28;99057.00;8196443;28;20467;-72
2022/05/12 09:13:41;;;;;;;14.05;3.30;;;;;;;21.58;45.19;99068.22;8197394;28;20058;-71
2022/05/12 09:17:48;;;;;;;13.55;2.20;;;;;;;21.40;43.79;99077.16;8198911;28;20047;-72
2022/05/12 09:21:50;;;;;;;10.73;2.15;;;;;;;21.59;42.64;99083.53;8213313;28;20058;-72
2022/05/12 09:25:52;;;;;;;15.18;2.13;;;;;;;22.20;42.15;99091.78;8203137;29;20404;-71
2022/05/12 09:29:53;;;;;;;18.23;2.40;;;;;;;22.46;40.19;99098.19;8205050;28;20062;-71
2022/05/12 09:33:54;;;;;;;14.52;1.92;;;;;;;22.75;39.02;99083.34;8205297;28;20040;-71
2022/05/12 09:37:56;;;;;;;28.65;2.55;;;;;;;22.82;37.60;99110.91;8204616;28;20067;-73
2022/05/12 09:41:57;;;;;;;20.83;2.28;;;;;;;22.58;36.95;99117.06;8216122;28;20051;-72
2022/05/12 09:46:18;;;;;;;46.78;2.92;;;;;;;22.49;37.25;99113.91;8199674;28;20509;-73
2022/05/12 09:50:26;;;;;;;25.13;3.28;;;;;;;22.41;37.68;99123.31;8204572;28;20044;-72
2022/05/12 09:54:29;;;;;;;17.67;1.80;;;;;;;22.78;36.69;99132.13;8202419;29;20066;-71
2022/05/12 09:58:37;;;;;;;23.67;2.20;;;;;;;22.94;35.51;99129.81;8200116;28;20466;-72
2022/05/12 10:11:27;;;;;;;25.45;2.17;;;;;;;22.64;36.37;99132.81;8203113;28;20055;-72
2022/05/12 10:15:31;;;;;;;27.33;2.10;;;;;;;22.44;36.23;99141.78;8217707;28;20058;-72
2022/05/12 10:19:33;;;;;;;20.65;1.77;;;;;;;22.71;35.64;99154.13;8200560;28;20040;-73
2022/05/12 10:24:07;;;;;;;24.52;1.92;;;;;;;22.83;34.83;99178.56;8202206;28;20087;-72
2022/05/12 10:28:17;;;;;;;28.80;2.20;;;;;;;22.92;34.98;99165.19;8204681;28;20055;-73
2022/05/12 10:32:43;;;;;;;12.85;2.03;;;;;;;23.03;36.05;99166.03;8203656;28;20102;-72
2022/05/12 10:37:00;;;;;;;12.40;1.70;;;;;;;23.40;35.54;99173.16;8201380;28;20039;-71
2022/05/12 10:41:35;;;;;;;15.68;1.20;;;;;;;23.37;35.45;99173.97;8204350;28;20130;-72
2022/05/12 10:45:44;;;;;;;25.00;1.88;;;;;;;23.28;33.75;99181.78;8200032;28;20533;-72
2022/05/12 10:50:20;;;;;;;13.30;1.60;;;;;;;23.21;35.42;99203.84;8200030;28;20118;-72
2022/05/12 10:54:32;;;;;;;26.58;2.25;;;;;;;23.26;35.11;99211.72;8198804;28;20531;-72
2022/05/12 10:59:01;;;;;;;22.70;2.17;;;;;;;23.22;35.58;99199.88;8198888;29;20150;-72
2022/05/12 11:03:16;;;;;;;22.15;2.00;;;;;;;23.26;35.28;99211.72;8073195;29;20581;-72
2022/05/12 11:07:24;;;;;;;13.63;1.20;;;;;;;23.24;32.57;99214.06;8055293;29;20171;-72
2022/05/12 11:11:33;;;;;;;39.87;2.30;;;;;;;23.39;34.62;99210.16;8055449;29;20060;-71
2022/05/12 11:15:45;;;;;;;86.65;5.20;;;;;;;23.52;33.31;99214.16;8060543;29;20296;-71
2022/05/12 11:20:03;;;;;;;22.85;2.80;;;;;;;23.55;33.28;99229.91;8072972;29;20053;-72
2022/05/12 11:24:25;;;;;;;9.80;1.83;;;;;;;23.36;32.05;99221.97;8102904;29;20123;-71
2022/05/12 11:33:42;;;;;;;14.32;1.30;;;;;;;23.31;31.42;99230.63;8103330;29;20055;-71
2022/05/12 11:37:44;;;;;;;11.23;1.73;;;;;;;23.66;31.14;99230.69;8109945;29;20090;-71
2022/05/12 11:41:45;;;;;;;10.50;1.40;;;;;;;23.78;29.93;99230.31;8166560;29;20143;-72
2022/05/12 11:45:48;;;;;;;17.02;1.60;;;;;;;23.72;29.69;99229.13;8165842;29;20099;-70
2022/05/12 11:49:57;;;;;;;15.60;1.45;;;;;;;23.65;29.48;99234.63;8148019;29;20114;-72
2022/05/12 11:54:01;;;;;;;16.05;1.60;;;;;;;23.70;28.91;99242.50;8164562;29;20492;-71
2022/05/12 11:58:11;;;;;;;11.77;1.50;;;;;;;23.29;28.53;99250.28;8149355;29;20131;-72
2022/05/12 12:02:30;;;;;;;10.25;1.33;;;;;;;23.39;29.34;99237.72;8150631;29;20500;-72
2022/05/12 12:06:40;;;;;;;18.27;1.40;;;;;;;23.51;29.25;99251.16;8150114;29;20055;-72
2022/05/12 12:10:47;;;;;;;11.07;1.23;;;;;;;23.52;29.37;99258.25;8165690;29;20439;-72
2022/05/12 12:14:48;;;;;;;17.38;1.80;;;;;;;23.71;29.34;99255.13;8146410;29;20154;-72
2022/05/12 12:18:51;;;;;;;15.18;1.50;;;;;;;;;;8179697;28;20052;-72
2022/05/12 12:22:53;;;;;;;21.25;1.52;;;;;;;23.89;29.39;99283.50;8163231;29;20052;-71
2022/05/12 12:26:56;;;;;;;9.40;0.88;;;;;;;23.76;29.15;99246.47;8163685;29;20056;-72
2022/05/12 12:31:01;;;;;;;9.20;1.48;;;;;;;24.04;30.40;99270.50;8155561;28;20126;-72
2022/05/12 12:35:28;;;;;;;7.55;1.10;;;;;;;23.94;28.60;99269.34;8169556;28;20120;-72
2022/05/12 12:39:41;;;;;;;10.88;1.20;;;;;;;23.89;29.36;99266.97;8107699;29;20060;-72
2022/05/12 12:43:49;;;;;;;5.60;0.93;;;;;;;24.03;29.43;99281.94;8086514;29;20452;-72
2022/05/12 12:47:56;;;;;;;;;;;;;;;23.96;28.54;99282.72;8103378;29;20053;-71
2022/05/12 12:52:08;;;;;;;9.30;1.45;;;;;;;23.99;29.45;99277.22;8121101;29;19937;-73
2022/05/12 12:56:36;;;;;;;15.00;1.30;;;;;;;24.39;28.88;99273.25;8133372;29;20469;-70
2022/05/12 13:00:38;;;;;;;12.10;1.30;;;;;;;24.02;28.94;99291.38;8133924;29;20056;-71
2022/05/12 13:04:39;;;;;;;12.55;1.38;;;;;;;23.91;28.70;99281.13;8134705;29;20531;-72
2022/05/12 13:08:41;;;;;;;7.28;0.90;;;;;;;23.99;29.16;99282.72;8133169;29;20290;-71
2022/05/12 13:13:03;;;;;;;2.80;0.75;;;;;;;24.03;28.58;99287.44;8140513;29;20063;-71
2022/05/12 13:17:06;;;;;;;7.38;0.80;;;;;;;24.08;29.18;99300.84;8175862;29;20051;-74
2022/05/12 13:21:07;;;;;;;9.50;1.02;;;;;;;23.88;28.14;99298.47;8189055;28;20043;-71
2022/05/12 13:25:11;;;;;;;7.95;1.25;;;;;;;23.88;28.64;99298.47;8187393;28;20111;-70
2022/05/12 13:29:19;;;;;;;15.10;1.42;;;;;;;24.74;28.15;99302.78;8184132;28;20040;-71
2022/05/12 13:33:26;;;;;;;17.42;1.05;;;;;;;25.95;26.61;99293.91;8181664;28;20048;-71
2022/05/12 13:37:31;;;;;;;6.97;1.30;;;;;;;26.35;25.15;99301.50;8189203;28;20048;-72
2022/05/12 13:41:38;;;;;;;7.38;1.05;;;;;;;27.85;24.70;99300.53;8181812;28;20107;-73
2022/05/12 13:45:41;;;;;;;9.23;1.08;;;;;;;28.31;23.71;99310.91;8176077;29;20052;-72
2022/05/12 13:49:48;;;;;;;6.18;0.80;;;;;;;28.80;22.69;99309.25;8194360;28;20054;-72
2022/05/12 13:53:52;;;;;;;9.17;0.70;;;;;;;29.48;22.70;99309.47;8188421;29;20062;-73
2022/05/12 13:57:55;;;;;;;8.75;1.10;;;;;;;30.26;21.72;99307.63;8176272;29;20504;-72
2022/05/12 14:02:17;;;;;;;12.43;0.80;;;;;;;31.38;21.56;99313.38;8152318;29;20058;-72
2022/05/12 14:06:21;;;;;;;7.65;0.90;;;;;;;31.89;20.79;99308.59;8176060;29;20135;-72
2022/05/12 14:10:39;;;;;;;6.22;0.77;;;;;;;31.70;20.77;99315.22;8194890;28;20558;-73
2022/05/12 14:19:18;;;;;;;8.02;1.08;;;;;;;33.41;18.63;99319.34;8195367;28;20060;-72
2022/05/12 14:23:18;;;;;;;10.18;0.85;;;;;;;33.86;18.50;99327.97;8199341;28;20098;-72
2022/05/12 14:27:19;;;;;;;8.38;0.70;;;;;;;34.39;17.68;99313.81;8182182;29;20044;-72
2022/05/12 14:31:23;;;;;;;8.55;0.80;;;;;;;34.02;17.32;99335.34;8183973;28;20056;-73
2022/05/12 14:35:28;;;;;;;4.07;0.60;;;;;;;33.87;17.75;99323.94;8176377;29;20064;-72
2022/05/12 14:39:30;;;;;;;5.60;1.10;;;;;;;34.51;16.95;99321.31;8183200;28;20051;-71
2022/05/12 14:43:31;;;;;;;9.35;0.70;;;;;;;34.88;17.21;99326.97;8182604;29;20103;-72
2022/05/12 14:47:32;;;;;;;4.32;0.65;;;;;;;34.75;17.38;99313.84;8194083;28;20150;-72
2022/05/12 14:51:36;;;;;;;5.50;0.93;;;;;;;33.87;17.93;99318.34;8186085;28;20078;-72
2022/05/12 14:55:40;;;;;;;7.60;0.85;;;;;;;34.03;17.53;99319.31;8256537;28;20546;-73
2022/05/12 14:59:41;;;;;;;3.83;0.77;;;;;;;33.53;17.39;99315.66;8250670;28;20062;-72
2022/05/12 15:03:42;;;;;;;5.80;0.63;;;;;;;33.86;17.23;99316.75;8255635;28;20622;-72
2022/05/12 15:07:44;;;;;;;3.95;0.60;;;;;;;33.12;18.01;99319.59;8219391;28;20594;-74
2022/05/12 15:11:45;;;;;;;4.72;0.63;;;;;;;32.68;18.75;99313.19;8256900;28;20042;-72
2022/05/12 15:15:47;;;;;;;8.32;0.88;;;;;;;32.06;19.34;99324.03;8259283;28;20042;-71
2022/05/12 15:19:48;;;;;;;5.55;0.80;;;;;;;32.05;18.84;99316.88;8221423;28;20050;-73
2022/05/12 15:23:49;;;;;;;4.53;0.70;;;;;;;32.36;19.03;99316.31;8258979;28;20043;-73
2022/05/12 15:27:50;;;;;;;3.88;0.63;;;;;;;32.41;18.93;99310.13;8217098;28;20198;-72
2022/05/12 15:31:52;;;;;;;3.65;0.60;;;;;;;31.16;19.67;99323.56;8229778;28;20047;-73
2022/05/12 15:35:54;;;;;;;3.85;0.63;;;;;;;30.64;20.44;99316.22;8203363;28;20082;-73
2022/05/12 15:39:56;;;;;;;6.75;0.80;;;;;;;30.13;20.37;99312.34;8185341;28;20050;-71
2022/05/12 15:43:57;;;;;;;2.17;0.55;;;;;;;29.19;21.23;99303.69;8203002;28;20047;-73
2022/05/12 15:47:58;;;;;;;3.65;0.70;;;;;;;29.23;21.72;99314.75;8187117;28;20420;-71
2022/05/12 15:52:02;;;;;;;4.60;0.85;;;;;;;28.83;22.07;99314.72;8187918;28;20055;-71
2022/05/12 15:56:03;;;;;;;4.05;0.50;;;;;;;28.65;22.23;99308.72;8188082;28;20483;-72
2022/05/12 16:00:05;;;;;;;7.32;0.88;;;;;;;29.41;21.89;99320.72;8197433;28;20052;-72
2022/05/12 16:04:07;;;;;;;2.80;0.80;;;;;;;30.17;21.16;99315.81;8188639;28;20488;-73
2022/05/12 16:08:09;;;;;;;7.70;0.85;;;;;;;29.01;21.05;99325.50;8197274;28;20073;-71
2022/05/12 16:12:23;;;;;;;1.63;0.50;;;;;;;28.39;22.00;99315.13;8171762;29;20055;-72
2022/05/12 16:16:24;;;;;;;2.83;0.70;;;;;;;29.58;21.37;99322.34;8174864;28;20048;-73
2022/05/12 16:20:26;;;;;;;2.65;0.60;;;;;;;30.38;20.08;99315.28;8178717;28;20143;-72
2022/05/12 16:24:27;;;;;;;2.00;0.60;;;;;;;28.76;21.19;99316.88;8188783;28;20424;-72
2022/05/12 16:28:32;;;;;;;2.55;0.60;;;;;;;26.65;23.33;99313.91;8182367;28;20062;-71
2022/05/12 16:32:34;;;;;;;6.32;0.60;;;;;;;25.52;25.05;99321.81;8191238;28;20071;-72
2022/05/12 16:36:36;;;;;;;8.77;0.60;;;;;;;24.89;25.79;99316.56;8192902;28;20494;-71
2022/05/12 16:40:38;;;;;;;3.45;0.55;;;;;;;24.45;26.56;99315.06;8198187;28;20051;-71
2022/05/12 16:44:39;;;;;;;8.63;0.70;;;;;;;24.12;27.05;99312.66;8217624;28;20475;-71
2022/05/12 16:48:41;;;;;;;1.60;0.60;;;;;;;23.48;27.39;99312.56;8187927;29;20103;-70
2022/05/12 16:52:43;;;;;;;2.75;0.52;;;;;;;23.20;27.91;99312.47;8182989;28;20074;-71
2022/05/12 16:56:43;;;;;;;1.27;0.60;;;;;;;23.04;28.27;99315.53;8199690;28;20056;-73
2022/05/12 17:00:45;;;;;;;2.72;0.57;;;;;;;22.81;29.30;99318.56;8184876;28;20044;-71
2022/05/12 17:04:46;;;;;;;3.17;0.70;;;;;;;22.42;29.29;99309.25;8181122;28;20472;-71
2022/05/12 17:08:47;;;;;;;2.42;0.85;;;;;;;22.16;29.85;99322.00;8185145;29;20507;-72
2022/05/12 17:13:08;;;;;;;0.60;0.50;;;;;;;21.98;30.14;99315.59;8184509;28;20078;-71
2022/05/12 17:17:09;;;;;;;5.20;0.70;;;;;;;21.77;30.41;99312.63;8224517;28;20043;-71
2022/05/12 17:21:10;;;;;;;3.15;0.60;;;;;;;21.59;30.66;99315.16;8223055;28;20120;-71
2022/05/12 17:25:12;;;;;;;12.55;0.75;;;;;;;21.38;30.79;99310.25;8221884;28;20043;-71
2022/05/12 17:29:12;;;;;;;3.80;0.80;;;;;;;21.29;31.38;99317.19;8222744;28;20055;-71
2022/05/12 17:33:16;;;;;;;3.38;1.00;;;;;;;21.20;32.00;99309.25;8223886;28;20423;-71
2022/05/12 17:37:17;;;;;;;3.72;0.70;;;;;;;21.04;32.76;99300.41;8222509;28;20042;-70
2022/05/12 17:41:18;;;;;;;4.40;0.80;;;;;;;20.89;32.40;99304.91;8226517;28;20055;-71
2022/05/12 17:45:19;;;;;;;3.58;0.80;;;;;;;20.72;33.19;99310.16;8189397;29;20106;-70
2022/05/12 17:49:20;;;;;;;1.80;0.98;;;;;;;20.57;34.23;99304.44;8204289;28;20047;-71
2022/05/12 17:53:21;;;;;;;5.53;0.82;;;;;;;20.39;34.14;99308.91;8204264;29;20066;-71
2022/05/12 17:57:22;;;;;;;2.80;0.57;;;;;;;20.26;34.99;99321.19;8205664;28;20559;-71
2022/05/12 18:01:23;;;;;;;5.55;0.73;;;;;;;20.05;35.44;99320.84;8205434;28;20047;-70
2022/05/12 18:05:24;;;;;;;3.75;0.70;;;;;;;19.83;36.55;99318.91;8205149;28;20051;-71
2022/05/12 18:09:26;;;;;;;4.63;0.80;;;;;;;19.56;36.42;99320.78;8205020;28;20478;-71
2022/05/12 18:13:27;;;;;;;3.80;0.82;;;;;;;19.31;37.15;99309.28;8234998;28;20499;-71
2022/05/12 18:17:31;;;;;;;1.52;0.63;;;;;;;19.09;37.85;99312.78;8203663;28;20054;-75
2022/05/12 18:21:33;;;;;;;3.08;0.68;;;;;;;18.88;38.68;99324.84;8211132;28;20415;-71
2022/05/12 18:25:34;;;;;;;5.30;0.80;;;;;;;18.70;39.95;99340.09;8203585;28;20043;-71
2022/05/12 18:29:35;;;;;;;7.57;0.98;;;;;;;18.46;40.50;99346.53;8204320;28;20070;-71
2022/05/12 18:33:37;;;;;;;4.93;1.27;;;;;;;18.21;41.35;99334.22;8202376;29;20460;-70
2022/05/12 18:37:38;;;;;;;3.08;1.10;;;;;;;18.03;42.16;99350.16;8203404;28;20423;-71
2022/05/12 18:41:40;;;;;;;1.75;0.77;;;;;;;17.83;42.98;99351.19;8202048;29;20400;-72
2022/05/12 18:45:42;;;;;;;6.00;1.40;;;;;;;17.59;43.28;99352.13;8204058;28;20467;-71
2022/05/12 18:49:42;;;;;;;1.52;0.85;;;;;;;17.40;43.85;99353.88;8201713;29;20051;-71
2022/05/12 18:53:44;;;;;;;2.67;0.90;;;;;;;17.21;43.87;99358.06;8204835;28;20059;-70
2022/05/12 18:57:46;;;;;;;3.15;1.10;;;;;;;17.03;44.43;99355.94;8211901;28;20054;-70
2022/05/12 19:01:55;;;;;;;4.65;1.23;;;;;;;16.82;45.16;99350.66;8204318;28;20415;-71
2022/05/12 19:05:56;;;;;;;1.42;0.75;;;;;;;16.64;45.59;99349.31;8226368;28;20047;-71
2022/05/12 19:09:59;;;;;;;8.90;1.02;;;;;;;16.47;46.08;99367.47;8206648;28;20051;-70
2022/05/12 19:14:00;;;;;;;6.28;1.55;;;;;;;16.35;46.55;99378.38;8202304;28;20051;-71
2022/05/12 19:18:08;;;;;;;8.52;1.60;;;;;;;16.27;47.14;99373.84;8188202;28;20043;-70
2022/05/12 19:22:08;;;;;;;4.70;1.52;;;;;;;16.16;47.81;99380.84;8200466;28;20080;-71
2022/05/12 19:26:10;;;;;;;3.03;1.23;;;;;;;16.10;47.63;99368.59;8195377;28;20098;-70
2022/05/12 19:30:14;;;;;;;7.05;1.50;;;;;;;15.97;48.17;99380.59;8195992;28;20094;-74